Marco Polo — BR2031 — position and weather

sailwx.info

Track history (hours):
 
Tides and Currents Weather Stations Pressure Air Temp Water Temp Dewpoint Dewpoint Depression Visibility Wind Speed Wind Dir Waves Ship Positions

Marco Polo

Last reported at 2014-Oct-30 18:32 UTC. Time now 2014-Oct-30 18:59 UTC.
Position N 24°25' E 118°17'.

Length 32 m.

MMSI: 416000256.

Date/timePositionNaut miles runAvg speedWind from/ knotsBaromVisibWave heightAir tempDewpointWater temp
2014-Oct-30 18:32N 24°25' E 118°17'0 0.0
2014-Oct-30 17:33N 24°25' E 118°17'0 0.0
2014-Oct-30 16:33N 24°25' E 118°17'0 0.0
2014-Oct-30 15:32N 24°25' E 118°17'0 0.0
2014-Oct-30 09:26N 24°25' E 118°17'0 0.0
2014-Oct-30 08:33N 24°25' E 118°17'0 0.3
2014-Oct-30 07:33N 24°26' E 118°17'8 8.3
2014-Oct-30 06:33N 24°32' E 118°11'9 8.9
2014-Oct-30 05:32N 24°25' E 118°17'0 0.0
2014-Oct-30 04:26N 24°25' E 118°17'0 0.1
2014-Oct-30 03:25N 24°25' E 118°17'0 0.3
2014-Oct-30 01:32N 24°25' E 118°17'8 8.3
2014-Oct-30 00:33N 24°32' E 118°12'0 0.0
2014-Oct-29 09:33N 24°32' E 118°12'8 8.1
2014-Oct-29 08:33N 24°25' E 118°17'0 0.2
2014-Oct-29 07:31N 24°25' E 118°17'0 0.0
2014-Oct-29 06:32N 24°25' E 118°17'0 0.0
2014-Oct-29 04:33N 24°25' E 118°17'0 0.0
2014-Oct-29 03:32N 24°25' E 118°17'0 0.0
2014-Oct-29 02:20N 24°25' E 118°17'0 0.0
2014-Oct-29 00:07N 24°25' E 118°17'0 0.0
2014-Oct-28 23:30N 24°25' E 118°17'0 0.0
2014-Oct-28 22:32N 24°25' E 118°17'0 0.0
2014-Oct-28 21:31N 24°25' E 118°17'0 0.0
2014-Oct-28 20:32N 24°25' E 118°17'0 0.0
2014-Oct-28 19:29N 24°25' E 118°17'0 0.0
2014-Oct-28 18:31N 24°25' E 118°17'0 0.0
2014-Oct-28 17:33N 24°25' E 118°17'0 0.0
2014-Oct-28 16:32N 24°25' E 118°17'0 0.0
2014-Oct-28 15:33N 24°25' E 118°17'0 0.0
2014-Oct-28 14:30N 24°25' E 118°17'0 0.0
2014-Oct-28 13:20N 24°25' E 118°17'0 0.0
2014-Oct-28 10:05N 24°25' E 118°17'0 0.0
2014-Oct-28 09:32N 24°25' E 118°17'0 0.1
2014-Oct-28 08:31N 24°25' E 118°17'9 9.0
2014-Oct-28 07:33N 24°32' E 118°11'9 8.8
2014-Oct-28 06:33N 24°25' E 118°17'0 0.1
2014-Oct-28 05:33N 24°25' E 118°17'0 0.0
2014-Oct-28 04:33N 24°25' E 118°17'8 7.9
2014-Oct-28 03:32N 24°32' E 118°13'0 0.0
2014-Oct-28 02:33N 24°32' E 118°13'8 7.5
2014-Oct-28 01:30N 24°25' E 118°17'0 0.1
2014-Oct-28 00:33N 24°25' E 118°17'0 0.0
2014-Oct-27 23:32N 24°25' E 118°17'0 0.0
2014-Oct-27 22:30N 24°25' E 118°17'0 0.0
2014-Oct-27 21:33N 24°25' E 118°17'0 0.0
2014-Oct-27 20:32N 24°25' E 118°17'0 0.0
2014-Oct-27 19:33N 24°25' E 118°17'0 0.0
2014-Oct-27 18:32N 24°25' E 118°17'0 0.0
2014-Oct-27 17:26N 24°25' E 118°17'0 0.0
2014-Oct-27 16:32N 24°25' E 118°17'0 0.0
2014-Oct-27 15:32N 24°25' E 118°17'0 0.0
2014-Oct-27 14:31N 24°25' E 118°17'0 0.0
2014-Oct-27 09:32N 24°25' E 118°17'0 0.0
2014-Oct-27 08:33N 24°25' E 118°17'0 0.2
2014-Oct-27 07:32N 24°25' E 118°17'9 8.9
2014-Oct-27 06:33N 24°32' E 118°11'9 8.8
2014-Oct-27 05:32N 24°25' E 118°17'0 0.0
2014-Oct-27 04:22N 24°25' E 118°17'0 0.5
2014-Oct-27 03:28N 24°25' E 118°17'1 1.4
2014-Oct-27 02:33N 24°27' E 118°17'8 7.7
2014-Oct-27 01:33N 24°32' E 118°11'9 8.8
2014-Oct-27 00:32N 24°25' E 118°17'0 0.0
2014-Oct-26 23:31N 24°25' E 118°17'0 0.0
2014-Oct-26 22:34N 24°25' E 118°17'0 0.0
2014-Oct-26 21:33N 24°25' E 118°17'0 0.0
2014-Oct-26 20:32N 24°25' E 118°17'0 0.0
2014-Oct-26 19:33N 24°25' E 118°17'0 0.0
2014-Oct-26 18:31N 24°25' E 118°17'0 0.0
2014-Oct-26 17:33N 24°25' E 118°17'0 0.0
2014-Oct-26 16:28N 24°25' E 118°17'0 0.0
2014-Oct-26 15:30N 24°25' E 118°17'2 0.4
2014-Oct-26 09:33N 24°27' E 118°17'7 7.0
2014-Oct-26 08:33N 24°32' E 118°11'9 8.8
2014-Oct-26 07:32N 24°25' E 118°17'0 0.1
2014-Oct-26 06:30N 24°25' E 118°17'0 0.0
2014-Oct-26 05:32N 24°25' E 118°17'8 7.6
2014-Oct-26 04:33N 24°31' E 118°13'1 1.1
2014-Oct-26 03:32N 24°32' E 118°12'9 8.8
2014-Oct-26 02:33N 24°25' E 118°17'0 0.4
2014-Oct-26 01:32N 24°25' E 118°17'0 0.0
2014-Oct-26 00:33N 24°25' E 118°17'0 0.0
2014-Oct-25 23:29N 24°25' E 118°17'0 0.0
2014-Oct-25 22:30N 24°25' E 118°17'0 0.0
2014-Oct-25 21:06N 24°25' E 118°17'0 0.0
2014-Oct-25 20:30N 24°25' E 118°17'0 0.0
2014-Oct-25 19:33N 24°25' E 118°17'0 0.0
2014-Oct-25 18:32N 24°25' E 118°17'0 0.0
2014-Oct-25 17:27N 24°25' E 118°17'0 0.0
2014-Oct-25 16:31N 24°25' E 118°17'0 0.0
2014-Oct-25 15:31N 24°25' E 118°17'0 0.0
2014-Oct-25 14:33N 24°25' E 118°17'0 0.0
2014-Oct-25 13:32N 24°25' E 118°17'0 0.0
2014-Oct-25 12:25N 24°25' E 118°17'0 0.0
2014-Oct-25 11:31N 24°25' E 118°17'0 0.0
2014-Oct-25 10:32N 24°25' E 118°17'0 0.0
2014-Oct-25 09:20N 24°25' E 118°17'0 0.0
2014-Oct-25 08:18N 24°25' E 118°17'0 0.0
2014-Oct-25 07:33N 24°25' E 118°17'0 0.3
2014-Oct-25 06:32N 24°25' E 118°17'9 4.4
2014-Oct-25 04:33N 24°32' E 118°11'9 8.5
2014-Oct-25 03:29N 24°25' E 118°17'0 0.5
2014-Oct-25 02:31N 24°25' E 118°17'1 0.5
2014-Oct-25 01:32N 24°26' E 118°17'8 8.4
2014-Oct-25 00:34N 24°32' E 118°11'9 9.0
2014-Oct-24 23:33N 24°25' E 118°17'0 0.0
2014-Oct-24 22:32N 24°25' E 118°17'0 0.0
2014-Oct-24 21:33N 24°25' E 118°17'0 0.0
2014-Oct-24 20:32N 24°25' E 118°17'0 0.0
2014-Oct-24 19:22N 24°25' E 118°17'1 0.1
2014-Oct-24 10:05N 24°26' E 118°17'815.5
2014-Oct-24 09:32N 24°32' E 118°11'9 6.2
2014-Oct-24 08:06N 24°25' E 118°17'0 0.7
2014-Oct-24 07:33N 24°25' E 118°17'0 0.1
2014-Oct-24 06:23N 24°25' E 118°17'0 0.0
2014-Oct-24 04:25N 24°25' E 118°17'8 8.7
2014-Oct-24 03:31N 24°32' E 118°12'0 0.1
2014-Oct-24 02:33N 24°32' E 118°12'8 6.9
2014-Oct-24 01:23N 24°25' E 118°17'0 0.3
2014-Oct-24 00:30N 24°25' E 118°17'0 0.0
2014-Oct-23 23:23N 24°25' E 118°17'0 0.0
2014-Oct-23 20:14N 24°25' E 118°17'0 0.0
2014-Oct-23 18:23N 24°25' E 118°17'0 0.0
2014-Oct-23 17:33N 24°25' E 118°17'0 0.0
2014-Oct-23 16:30N 24°25' E 118°17'0 0.0
2014-Oct-23 15:33N 24°25' E 118°17'0 0.0
2014-Oct-23 14:33N 24°25' E 118°17'0 0.0
2014-Oct-23 09:13N 24°25' E 118°17'0 0.4
2014-Oct-23 08:32N 24°25' E 118°17'9 8.8
2014-Oct-23 07:32N 24°32' E 118°11'9 8.8
2014-Oct-23 06:31N 24°25' E 118°17'0 0.3
2014-Oct-23 05:28N 24°25' E 118°17'9 8.4
2014-Oct-23 04:26N 24°32' E 118°11'2 1.9
2014-Oct-23 03:33N 24°32' E 118°13'7 2.4
2014-Oct-23 00:30N 24°25' E 118°17'0 0.0
2014-Oct-22 18:09N 24°25' E 118°17'0 0.0
2014-Oct-22 15:11N 24°25' E 118°17'0 0.1
2014-Oct-22 07:33N 24°25' E 118°17'9 8.2
2014-Oct-22 06:28N 24°32' E 118°11'9 9.8
2014-Oct-22 05:33N 24°25' E 118°17'0 0.1
2014-Oct-22 04:28N 24°25' E 118°17'0 0.5
2014-Oct-22 03:31N 24°25' E 118°17'1 0.8
2014-Oct-22 02:33N 24°26' E 118°17'7 6.8
2014-Oct-22 01:32N 24°32' E 118°12'8 8.2
2014-Oct-22 00:33N 24°25' E 118°17'0 0.0
2014-Oct-21 23:31N 24°25' E 118°17'0 0.0
2014-Oct-21 22:33N 24°25' E 118°17'0 0.0
2014-Oct-21 21:33N 24°25' E 118°17'0 0.0
2014-Oct-21 20:33N 24°25' E 118°17'0 0.0
2014-Oct-21 19:33N 24°25' E 118°17'0 0.0
2014-Oct-21 18:32N 24°25' E 118°17'0 0.0
2014-Oct-21 17:33N 24°25' E 118°17'0 0.0
2014-Oct-21 16:34N 24°25' E 118°17'0 0.0
2014-Oct-21 15:33N 24°25' E 118°17'0 0.0
2014-Oct-21 14:31N 24°25' E 118°17'0 0.1
2014-Oct-21 09:33N 24°25' E 118°17'9 8.5
2014-Oct-21 08:32N 24°32' E 118°11'9 8.8
2014-Oct-21 07:31N 24°25' E 118°17'0 0.4
2014-Oct-21 06:34N 24°25' E 118°17'0 0.2
2014-Oct-21 04:15N 24°25' E 118°17'811.7
2014-Oct-21 03:32N 24°32' E 118°12'1 0.7
2014-Oct-21 02:33N 24°32' E 118°13'8 7.8
2014-Oct-21 01:33N 24°25' E 118°17'0 0.5
2014-Oct-21 00:33N 24°25' E 118°17'0 0.0
2014-Oct-20 23:32N 24°25' E 118°17'0 0.0
2014-Oct-20 22:34N 24°25' E 118°17'0 0.0
2014-Oct-20 21:33N 24°25' E 118°17'0 0.0
2014-Oct-20 20:26N 24°25' E 118°17'0 0.0
2014-Oct-20 19:32N 24°25' E 118°17'0 0.0
2014-Oct-20 18:33N 24°25' E 118°17'  
Track history (hours):
 
Tides and Currents Weather Stations Pressure Air Temp Water Temp Dewpoint Dewpoint Depression Visibility Wind Speed Wind Dir Waves Ship Positions

Marco Polo

Last reported at 2014-Oct-30 18:32 UTC. Time now 2014-Oct-30 18:59 UTC.
Position N 24°25' E 118°17'.

Length 32 m.

MMSI: 416000256.

Date/timePositionNaut miles runAvg speedWind from/ knotsBaromVisibWave heightAir tempDewpointWater temp
2014-Oct-30 18:32N 24°25' E 118°17'0 0.0
2014-Oct-30 17:33N 24°25' E 118°17'0 0.0
2014-Oct-30 16:33N 24°25' E 118°17'0 0.0
2014-Oct-30 15:32N 24°25' E 118°17'0 0.0
2014-Oct-30 09:26N 24°25' E 118°17'0 0.0
2014-Oct-30 08:33N 24°25' E 118°17'0 0.3
2014-Oct-30 07:33N 24°26' E 118°17'8 8.3
2014-Oct-30 06:33N 24°32' E 118°11'9 8.9
2014-Oct-30 05:32N 24°25' E 118°17'0 0.0
2014-Oct-30 04:26N 24°25' E 118°17'0 0.1
2014-Oct-30 03:25N 24°25' E 118°17'0 0.3
2014-Oct-30 01:32N 24°25' E 118°17'8 8.3
2014-Oct-30 00:33N 24°32' E 118°12'0 0.0
2014-Oct-29 09:33N 24°32' E 118°12'8 8.1
2014-Oct-29 08:33N 24°25' E 118°17'0 0.2
2014-Oct-29 07:31N 24°25' E 118°17'0 0.0
2014-Oct-29 06:32N 24°25' E 118°17'0 0.0
2014-Oct-29 04:33N 24°25' E 118°17'0 0.0
2014-Oct-29 03:32N 24°25' E 118°17'0 0.0
2014-Oct-29 02:20N 24°25' E 118°17'0 0.0
2014-Oct-29 00:07N 24°25' E 118°17'0 0.0
2014-Oct-28 23:30N 24°25' E 118°17'0 0.0
2014-Oct-28 22:32N 24°25' E 118°17'0 0.0
2014-Oct-28 21:31N 24°25' E 118°17'0 0.0
2014-Oct-28 20:32N 24°25' E 118°17'0 0.0
2014-Oct-28 19:29N 24°25' E 118°17'0 0.0
2014-Oct-28 18:31N 24°25' E 118°17'0 0.0
2014-Oct-28 17:33N 24°25' E 118°17'0 0.0
2014-Oct-28 16:32N 24°25' E 118°17'0 0.0
2014-Oct-28 15:33N 24°25' E 118°17'0 0.0
2014-Oct-28 14:30N 24°25' E 118°17'0 0.0
2014-Oct-28 13:20N 24°25' E 118°17'0 0.0
2014-Oct-28 10:05N 24°25' E 118°17'0 0.0
2014-Oct-28 09:32N 24°25' E 118°17'0 0.1
2014-Oct-28 08:31N 24°25' E 118°17'9 9.0
2014-Oct-28 07:33N 24°32' E 118°11'9 8.8
2014-Oct-28 06:33N 24°25' E 118°17'0 0.1
2014-Oct-28 05:33N 24°25' E 118°17'0 0.0
2014-Oct-28 04:33N 24°25' E 118°17'8 7.9
2014-Oct-28 03:32N 24°32' E 118°13'0 0.0
2014-Oct-28 02:33N 24°32' E 118°13'8 7.5
2014-Oct-28 01:30N 24°25' E 118°17'0 0.1
2014-Oct-28 00:33N 24°25' E 118°17'0 0.0
2014-Oct-27 23:32N 24°25' E 118°17'0 0.0
2014-Oct-27 22:30N 24°25' E 118°17'0 0.0
2014-Oct-27 21:33N 24°25' E 118°17'0 0.0
2014-Oct-27 20:32N 24°25' E 118°17'0 0.0
2014-Oct-27 19:33N 24°25' E 118°17'0 0.0
2014-Oct-27 18:32N 24°25' E 118°17'0 0.0
2014-Oct-27 17:26N 24°25' E 118°17'0 0.0
2014-Oct-27 16:32N 24°25' E 118°17'0 0.0
2014-Oct-27 15:32N 24°25' E 118°17'0 0.0
2014-Oct-27 14:31N 24°25' E 118°17'0 0.0
2014-Oct-27 09:32N 24°25' E 118°17'0 0.0
2014-Oct-27 08:33N 24°25' E 118°17'0 0.2
2014-Oct-27 07:32N 24°25' E 118°17'9 8.9
2014-Oct-27 06:33N 24°32' E 118°11'9 8.8
2014-Oct-27 05:32N 24°25' E 118°17'0 0.0
2014-Oct-27 04:22N 24°25' E 118°17'0 0.5
2014-Oct-27 03:28N 24°25' E 118°17'1 1.4
2014-Oct-27 02:33N 24°27' E 118°17'8 7.7
2014-Oct-27 01:33N 24°32' E 118°11'9 8.8
2014-Oct-27 00:32N 24°25' E 118°17'0 0.0
2014-Oct-26 23:31N 24°25' E 118°17'0 0.0
2014-Oct-26 22:34N 24°25' E 118°17'0 0.0
2014-Oct-26 21:33N 24°25' E 118°17'0 0.0
2014-Oct-26 20:32N 24°25' E 118°17'0 0.0
2014-Oct-26 19:33N 24°25' E 118°17'0 0.0
2014-Oct-26 18:31N 24°25' E 118°17'0 0.0
2014-Oct-26 17:33N 24°25' E 118°17'0 0.0
2014-Oct-26 16:28N 24°25' E 118°17'0 0.0
2014-Oct-26 15:30N 24°25' E 118°17'2 0.4
2014-Oct-26 09:33N 24°27' E 118°17'7 7.0
2014-Oct-26 08:33N 24°32' E 118°11'9 8.8
2014-Oct-26 07:32N 24°25' E 118°17'0 0.1
2014-Oct-26 06:30N 24°25' E 118°17'0 0.0
2014-Oct-26 05:32N 24°25' E 118°17'8 7.6
2014-Oct-26 04:33N 24°31' E 118°13'1 1.1
2014-Oct-26 03:32N 24°32' E 118°12'9 8.8
2014-Oct-26 02:33N 24°25' E 118°17'0 0.4
2014-Oct-26 01:32N 24°25' E 118°17'0 0.0
2014-Oct-26 00:33N 24°25' E 118°17'0 0.0
2014-Oct-25 23:29N 24°25' E 118°17'0 0.0
2014-Oct-25 22:30N 24°25' E 118°17'0 0.0
2014-Oct-25 21:06N 24°25' E 118°17'0 0.0
2014-Oct-25 20:30N 24°25' E 118°17'0 0.0
2014-Oct-25 19:33N 24°25' E 118°17'0 0.0
2014-Oct-25 18:32N 24°25' E 118°17'0 0.0
2014-Oct-25 17:27N 24°25' E 118°17'0 0.0
2014-Oct-25 16:31N 24°25' E 118°17'0 0.0
2014-Oct-25 15:31N 24°25' E 118°17'0 0.0
2014-Oct-25 14:33N 24°25' E 118°17'0 0.0
2014-Oct-25 13:32N 24°25' E 118°17'0 0.0
2014-Oct-25 12:25N 24°25' E 118°17'0 0.0
2014-Oct-25 11:31N 24°25' E 118°17'0 0.0
2014-Oct-25 10:32N 24°25' E 118°17'0 0.0
2014-Oct-25 09:20N 24°25' E 118°17'0 0.0
2014-Oct-25 08:18N 24°25' E 118°17'0 0.0
2014-Oct-25 07:33N 24°25' E 118°17'0 0.3
2014-Oct-25 06:32N 24°25' E 118°17'9 4.4
2014-Oct-25 04:33N 24°32' E 118°11'9 8.5
2014-Oct-25 03:29N 24°25' E 118°17'0 0.5
2014-Oct-25 02:31N 24°25' E 118°17'1 0.5
2014-Oct-25 01:32N 24°26' E 118°17'8 8.4
2014-Oct-25 00:34N 24°32' E 118°11'9 9.0
2014-Oct-24 23:33N 24°25' E 118°17'0 0.0
2014-Oct-24 22:32N 24°25' E 118°17'0 0.0
2014-Oct-24 21:33N 24°25' E 118°17'0 0.0
2014-Oct-24 20:32N 24°25' E 118°17'0 0.0
2014-Oct-24 19:22N 24°25' E 118°17'1 0.1
2014-Oct-24 10:05N 24°26' E 118°17'815.5
2014-Oct-24 09:32N 24°32' E 118°11'9 6.2
2014-Oct-24 08:06N 24°25' E 118°17'0 0.7
2014-Oct-24 07:33N 24°25' E 118°17'0 0.1
2014-Oct-24 06:23N 24°25' E 118°17'0 0.0
2014-Oct-24 04:25N 24°25' E 118°17'8 8.7
2014-Oct-24 03:31N 24°32' E 118°12'0 0.1
2014-Oct-24 02:33N 24°32' E 118°12'8 6.9
2014-Oct-24 01:23N 24°25' E 118°17'0 0.3
2014-Oct-24 00:30N 24°25' E 118°17'0 0.0
2014-Oct-23 23:23N 24°25' E 118°17'0 0.0
2014-Oct-23 20:14N 24°25' E 118°17'0 0.0
2014-Oct-23 18:23N 24°25' E 118°17'0 0.0
2014-Oct-23 17:33N 24°25' E 118°17'0 0.0
2014-Oct-23 16:30N 24°25' E 118°17'0 0.0
2014-Oct-23 15:33N 24°25' E 118°17'0 0.0
2014-Oct-23 14:33N 24°25' E 118°17'0 0.0
2014-Oct-23 09:13N 24°25' E 118°17'0 0.4
2014-Oct-23 08:32N 24°25' E 118°17'9 8.8
2014-Oct-23 07:32N 24°32' E 118°11'9 8.8
2014-Oct-23 06:31N 24°25' E 118°17'0 0.3
2014-Oct-23 05:28N 24°25' E 118°17'9 8.4
2014-Oct-23 04:26N 24°32' E 118°11'2 1.9
2014-Oct-23 03:33N 24°32' E 118°13'7 2.4
2014-Oct-23 00:30N 24°25' E 118°17'0 0.0
2014-Oct-22 18:09N 24°25' E 118°17'0 0.0
2014-Oct-22 15:11N 24°25' E 118°17'0 0.1
2014-Oct-22 07:33N 24°25' E 118°17'9 8.2
2014-Oct-22 06:28N 24°32' E 118°11'9 9.8
2014-Oct-22 05:33N 24°25' E 118°17'0 0.1
2014-Oct-22 04:28N 24°25' E 118°17'0 0.5
2014-Oct-22 03:31N 24°25' E 118°17'1 0.8
2014-Oct-22 02:33N 24°26' E 118°17'7 6.8
2014-Oct-22 01:32N 24°32' E 118°12'8 8.2
2014-Oct-22 00:33N 24°25' E 118°17'0 0.0
2014-Oct-21 23:31N 24°25' E 118°17'0 0.0
2014-Oct-21 22:33N 24°25' E 118°17'0 0.0
2014-Oct-21 21:33N 24°25' E 118°17'0 0.0
2014-Oct-21 20:33N 24°25' E 118°17'0 0.0
2014-Oct-21 19:33N 24°25' E 118°17'0 0.0
2014-Oct-21 18:32N 24°25' E 118°17'0 0.0
2014-Oct-21 17:33N 24°25' E 118°17'0 0.0
2014-Oct-21 16:34N 24°25' E 118°17'0 0.0
2014-Oct-21 15:33N 24°25' E 118°17'0 0.0
2014-Oct-21 14:31N 24°25' E 118°17'0 0.1
2014-Oct-21 09:33N 24°25' E 118°17'9 8.5
2014-Oct-21 08:32N 24°32' E 118°11'9 8.8
2014-Oct-21 07:31N 24°25' E 118°17'0 0.4
2014-Oct-21 06:34N 24°25' E 118°17'0 0.2
2014-Oct-21 04:15N 24°25' E 118°17'811.7
2014-Oct-21 03:32N 24°32' E 118°12'1 0.7
2014-Oct-21 02:33N 24°32' E 118°13'8 7.8
2014-Oct-21 01:33N 24°25' E 118°17'0 0.5
2014-Oct-21 00:33N 24°25' E 118°17'0 0.0
2014-Oct-20 23:32N 24°25' E 118°17'0 0.0
2014-Oct-20 22:34N 24°25' E 118°17'0 0.0
2014-Oct-20 21:33N 24°25' E 118°17'0 0.0
2014-Oct-20 20:26N 24°25' E 118°17'0 0.0
2014-Oct-20 19:32N 24°25' E 118°17'0 0.0
2014-Oct-20 18:33N 24°25' E 118°17'  

Dump ship's entire track history